sensor_id;sensor_type;location;lat;lon;timestamp;P1;durP1;ratioP1;P2;durP2;ratioP2
71790;SDS011;59638;52.126;5.434;2022-12-11T00:00:39;52.43;;;12.67;;
71790;SDS011;59638;52.126;5.434;2022-12-11T00:03:06;50.10;;;14.70;;
71790;SDS011;59638;52.126;5.434;2022-12-11T00:05:40;67.07;;;14.60;;
71790;SDS011;59638;52.126;5.434;2022-12-11T00:08:07;58.08;;;14.77;;
71790;SDS011;59638;52.126;5.434;2022-12-11T00:10:34;59.15;;;14.90;;
71790;SDS011;59638;52.126;5.434;2022-12-11T00:13:03;54.73;;;13.83;;
71790;SDS011;59638;52.126;5.434;2022-12-11T00:15:30;52.13;;;14.93;;
71790;SDS011;59638;52.126;5.434;2022-12-11T00:17:57;54.60;;;13.40;;
71790;SDS011;59638;52.126;5.434;2022-12-11T00:20:23;55.47;;;14.27;;
71790;SDS011;59638;52.126;5.434;2022-12-11T00:22:50;50.17;;;12.77;;
71790;SDS011;59638;52.126;5.434;2022-12-11T00:25:16;52.43;;;13.47;;
71790;SDS011;59638;52.126;5.434;2022-12-11T00:27:44;57.20;;;13.73;;
71790;SDS011;59638;52.126;5.434;2022-12-11T00:30:11;68.80;;;13.93;;
71790;SDS011;59638;52.126;5.434;2022-12-11T00:32:38;50.35;;;13.27;;
71790;SDS011;59638;52.126;5.434;2022-12-11T00:35:04;57.92;;;14.55;;
71790;SDS011;59638;52.126;5.434;2022-12-11T00:37:31;48.87;;;12.60;;
71790;SDS011;59638;52.126;5.434;2022-12-11T00:39:57;55.15;;;14.73;;
71790;SDS011;59638;52.126;5.434;2022-12-11T00:42:24;40.88;;;13.15;;
71790;SDS011;59638;52.126;5.434;2022-12-11T00:44:50;47.13;;;12.98;;
71790;SDS011;59638;52.126;5.434;2022-12-11T00:47:17;51.90;;;12.93;;
71790;SDS011;59638;52.126;5.434;2022-12-11T00:49:43;52.80;;;12.77;;
71790;SDS011;59638;52.126;5.434;2022-12-11T00:52:15;41.70;;;11.88;;
71790;SDS011;59638;52.126;5.434;2022-12-11T00:54:43;60.83;;;15.40;;
71790;SDS011;59638;52.126;5.434;2022-12-11T00:57:10;46.40;;;13.55;;
71790;SDS011;59638;52.126;5.434;2022-12-11T00:59:36;67.68;;;14.55;;
71790;SDS011;59638;52.126;5.434;2022-12-11T01:02:02;48.17;;;12.90;;
71790;SDS011;59638;52.126;5.434;2022-12-11T01:04:29;53.10;;;13.10;;
71790;SDS011;59638;52.126;5.434;2022-12-11T01:06:55;55.30;;;14.38;;
71790;SDS011;59638;52.126;5.434;2022-12-11T01:09:22;55.95;;;14.20;;
71790;SDS011;59638;52.126;5.434;2022-12-11T01:12:06;58.33;;;14.98;;
71790;SDS011;59638;52.126;5.434;2022-12-11T01:14:33;68.37;;;15.30;;
71790;SDS011;59638;52.126;5.434;2022-12-11T01:16:59;57.00;;;14.15;;
71790;SDS011;59638;52.126;5.434;2022-12-11T01:19:26;60.70;;;15.57;;
71790;SDS011;59638;52.126;5.434;2022-12-11T01:21:52;52.03;;;13.75;;
71790;SDS011;59638;52.126;5.434;2022-12-11T01:24:19;54.88;;;14.05;;
71790;SDS011;59638;52.126;5.434;2022-12-11T01:26:45;65.03;;;16.07;;
71790;SDS011;59638;52.126;5.434;2022-12-11T01:29:12;58.50;;;15.40;;
71790;SDS011;59638;52.126;5.434;2022-12-11T01:31:38;56.72;;;14.15;;
71790;SDS011;59638;52.126;5.434;2022-12-11T01:34:04;65.93;;;16.95;;
71790;SDS011;59638;52.126;5.434;2022-12-11T01:36:31;67.63;;;14.68;;
71790;SDS011;59638;52.126;5.434;2022-12-11T01:38:57;58.40;;;15.83;;
71790;SDS011;59638;52.126;5.434;2022-12-11T01:41:23;64.25;;;15.27;;
71790;SDS011;59638;52.126;5.434;2022-12-11T01:46:29;59.97;;;16.02;;
71790;SDS011;59638;52.126;5.434;2022-12-11T01:48:56;53.83;;;13.93;;
71790;SDS011;59638;52.126;5.434;2022-12-11T01:51:24;74.60;;;16.23;;
71790;SDS011;59638;52.126;5.434;2022-12-11T01:53:56;56.70;;;16.17;;
71790;SDS011;59638;52.126;5.434;2022-12-11T01:56:28;51.80;;;16.80;;
71790;SDS011;59638;52.126;5.434;2022-12-11T01:58:58;54.88;;;13.00;;
71790;SDS011;59638;52.126;5.434;2022-12-11T02:01:32;60.85;;;14.25;;
71790;SDS011;59638;52.126;5.434;2022-12-11T02:04:02;60.50;;;13.70;;
71790;SDS011;59638;52.126;5.434;2022-12-11T02:06:31;52.53;;;15.98;;
71790;SDS011;59638;52.126;5.434;2022-12-11T02:09:00;61.38;;;15.82;;
71790;SDS011;59638;52.126;5.434;2022-12-11T02:11:31;75.15;;;17.58;;
71790;SDS011;59638;52.126;5.434;2022-12-11T02:17:16;49.97;;;14.40;;
71790;SDS011;59638;52.126;5.434;2022-12-11T02:25:16;53.35;;;13.68;;
71790;SDS011;59638;52.126;5.434;2022-12-11T02:28:04;52.60;;;13.88;;
71790;SDS011;59638;52.126;5.434;2022-12-11T02:30:31;56.70;;;15.13;;
71790;SDS011;59638;52.126;5.434;2022-12-11T02:33:02;57.05;;;15.48;;
71790;SDS011;59638;52.126;5.434;2022-12-11T02:35:32;61.63;;;16.83;;
71790;SDS011;59638;52.126;5.434;2022-12-11T02:38:04;56.25;;;15.40;;
71790;SDS011;59638;52.126;5.434;2022-12-11T02:40:36;62.75;;;16.65;;
71790;SDS011;59638;52.126;5.434;2022-12-11T02:43:05;67.03;;;17.97;;
71790;SDS011;59638;52.126;5.434;2022-12-11T02:45:35;49.72;;;14.98;;
71790;SDS011;59638;52.126;5.434;2022-12-11T02:48:04;55.72;;;15.65;;
71790;SDS011;59638;52.126;5.434;2022-12-11T02:50:33;56.22;;;17.00;;
71790;SDS011;59638;52.126;5.434;2022-12-11T02:53:03;56.28;;;15.90;;
71790;SDS011;59638;52.126;5.434;2022-12-11T02:55:32;49.93;;;17.13;;
71790;SDS011;59638;52.126;5.434;2022-12-11T02:58:07;44.90;;;14.23;;
71790;SDS011;59638;52.126;5.434;2022-12-11T03:00:38;53.95;;;15.50;;
71790;SDS011;59638;52.126;5.434;2022-12-11T03:03:04;51.55;;;15.63;;
71790;SDS011;59638;52.126;5.434;2022-12-11T03:05:31;53.00;;;15.23;;
71790;SDS011;59638;52.126;5.434;2022-12-11T03:07:57;45.70;;;15.07;;
71790;SDS011;59638;52.126;5.434;2022-12-11T03:10:24;41.92;;;14.40;;
71790;SDS011;59638;52.126;5.434;2022-12-11T03:12:51;50.33;;;16.58;;
71790;SDS011;59638;52.126;5.434;2022-12-11T03:15:21;55.63;;;15.68;;
71790;SDS011;59638;52.126;5.434;2022-12-11T03:23:50;52.33;;;15.65;;
71790;SDS011;59638;52.126;5.434;2022-12-11T03:26:31;50.58;;;15.35;;
71790;SDS011;59638;52.126;5.434;2022-12-11T03:29:08;42.53;;;13.75;;
71790;SDS011;59638;52.126;5.434;2022-12-11T03:32:25;52.00;;;15.93;;
71790;SDS011;59638;52.126;5.434;2022-12-11T03:34:37;37.30;;;13.57;;
71790;SDS011;59638;52.126;5.434;2022-12-11T03:37:09;39.20;;;13.48;;
71790;SDS011;59638;52.126;5.434;2022-12-11T03:39:39;41.55;;;14.27;;
71790;SDS011;59638;52.126;5.434;2022-12-11T03:42:12;42.28;;;14.05;;
71790;SDS011;59638;52.126;5.434;2022-12-11T03:44:41;38.10;;;13.77;;
71790;SDS011;59638;52.126;5.434;2022-12-11T03:47:13;37.80;;;13.80;;
71790;SDS011;59638;52.126;5.434;2022-12-11T03:49:44;37.95;;;14.70;;
71790;SDS011;59638;52.126;5.434;2022-12-11T03:52:13;42.17;;;14.68;;
71790;SDS011;59638;52.126;5.434;2022-12-11T03:54:42;41.25;;;14.40;;
71790;SDS011;59638;52.126;5.434;2022-12-11T03:57:12;37.70;;;14.63;;
71790;SDS011;59638;52.126;5.434;2022-12-11T03:59:41;36.57;;;14.23;;
71790;SDS011;59638;52.126;5.434;2022-12-11T04:02:07;38.42;;;14.05;;
71790;SDS011;59638;52.126;5.434;2022-12-11T04:04:39;32.78;;;13.13;;
71790;SDS011;59638;52.126;5.434;2022-12-11T04:07:07;39.80;;;14.48;;
71790;SDS011;59638;52.126;5.434;2022-12-11T04:09:34;36.25;;;13.98;;
71790;SDS011;59638;52.126;5.434;2022-12-11T04:12:00;29.13;;;12.93;;
71790;SDS011;59638;52.126;5.434;2022-12-11T04:14:27;30.50;;;13.07;;
71790;SDS011;59638;52.126;5.434;2022-12-11T04:17:12;30.98;;;12.95;;
71790;SDS011;59638;52.126;5.434;2022-12-11T04:19:58;34.90;;;13.02;;
71790;SDS011;59638;52.126;5.434;2022-12-11T04:22:43;31.65;;;13.55;;
71790;SDS011;59638;52.126;5.434;2022-12-11T04:25:28;29.40;;;12.83;;
71790;SDS011;59638;52.126;5.434;2022-12-11T04:27:54;26.88;;;12.63;;
71790;SDS011;59638;52.126;5.434;2022-12-11T04:30:21;31.52;;;13.20;;
71790;SDS011;59638;52.126;5.434;2022-12-11T04:32:55;32.88;;;12.43;;
71790;SDS011;59638;52.126;5.434;2022-12-11T04:35:22;21.35;;;9.93;;
71790;SDS011;59638;52.126;5.434;2022-12-11T04:37:48;31.23;;;12.03;;
71790;SDS011;59638;52.126;5.434;2022-12-11T04:40:16;28.20;;;11.30;;
71790;SDS011;59638;52.126;5.434;2022-12-11T04:42:44;26.52;;;11.90;;
71790;SDS011;59638;52.126;5.434;2022-12-11T04:45:11;29.05;;;11.43;;
71790;SDS011;59638;52.126;5.434;2022-12-11T04:47:39;21.83;;;11.68;;
71790;SDS011;59638;52.126;5.434;2022-12-11T04:50:08;23.93;;;10.87;;
71790;SDS011;59638;52.126;5.434;2022-12-11T04:52:36;24.42;;;12.13;;
71790;SDS011;59638;52.126;5.434;2022-12-11T04:55:03;25.45;;;12.35;;
71790;SDS011;59638;52.126;5.434;2022-12-11T04:57:31;22.80;;;10.73;;
71790;SDS011;59638;52.126;5.434;2022-12-11T04:59:57;17.05;;;8.05;;
71790;SDS011;59638;52.126;5.434;2022-12-11T05:02:25;25.40;;;10.73;;
71790;SDS011;59638;52.126;5.434;2022-12-11T05:04:51;23.58;;;10.82;;
71790;SDS011;59638;52.126;5.434;2022-12-11T05:07:18;22.35;;;11.18;;
71790;SDS011;59638;52.126;5.434;2022-12-11T05:09:44;21.15;;;10.05;;
71790;SDS011;59638;52.126;5.434;2022-12-11T05:12:11;18.75;;;10.30;;
71790;SDS011;59638;52.126;5.434;2022-12-11T05:14:37;21.87;;;10.97;;
71790;SDS011;59638;52.126;5.434;2022-12-11T05:17:03;29.33;;;10.63;;
71790;SDS011;59638;52.126;5.434;2022-12-11T05:19:30;22.80;;;11.20;;
71790;SDS011;59638;52.126;5.434;2022-12-11T05:21:56;20.23;;;9.88;;
71790;SDS011;59638;52.126;5.434;2022-12-11T05:24:23;25.23;;;10.50;;
71790;SDS011;59638;52.126;5.434;2022-12-11T05:26:49;24.23;;;10.43;;
71790;SDS011;59638;52.126;5.434;2022-12-11T05:29:15;22.85;;;9.95;;
71790;SDS011;59638;52.126;5.434;2022-12-11T05:31:42;20.88;;;8.90;;
71790;SDS011;59638;52.126;5.434;2022-12-11T05:34:08;24.00;;;10.60;;
71790;SDS011;59638;52.126;5.434;2022-12-11T05:36:35;19.80;;;9.95;;
71790;SDS011;59638;52.126;5.434;2022-12-11T05:39:02;22.73;;;11.03;;
71790;SDS011;59638;52.126;5.434;2022-12-11T05:41:29;25.17;;;10.93;;
71790;SDS011;59638;52.126;5.434;2022-12-11T05:43:58;21.15;;;9.32;;
71790;SDS011;59638;52.126;5.434;2022-12-11T05:46:26;18.50;;;9.43;;
71790;SDS011;59638;52.126;5.434;2022-12-11T05:48:55;26.58;;;10.30;;
71790;SDS011;59638;52.126;5.434;2022-12-11T05:51:23;24.77;;;10.37;;
71790;SDS011;59638;52.126;5.434;2022-12-11T05:53:50;23.92;;;10.75;;
71790;SDS011;59638;52.126;5.434;2022-12-11T05:56:22;20.05;;;9.55;;
71790;SDS011;59638;52.126;5.434;2022-12-11T05:58:53;21.50;;;10.18;;
71790;SDS011;59638;52.126;5.434;2022-12-11T06:01:22;19.85;;;10.50;;
71790;SDS011;59638;52.126;5.434;2022-12-11T06:03:52;19.03;;;8.73;;
71790;SDS011;59638;52.126;5.434;2022-12-11T06:06:19;18.92;;;9.57;;
71790;SDS011;59638;52.126;5.434;2022-12-11T06:08:48;24.70;;;9.68;;
71790;SDS011;59638;52.126;5.434;2022-12-11T06:11:16;20.67;;;10.00;;
71790;SDS011;59638;52.126;5.434;2022-12-11T06:13:49;21.08;;;9.45;;
71790;SDS011;59638;52.126;5.434;2022-12-11T06:16:15;21.43;;;9.63;;
71790;SDS011;59638;52.126;5.434;2022-12-11T06:18:42;21.15;;;10.10;;
71790;SDS011;59638;52.126;5.434;2022-12-11T06:23:40;21.88;;;10.00;;
71790;SDS011;59638;52.126;5.434;2022-12-11T06:26:08;24.52;;;10.85;;
71790;SDS011;59638;52.126;5.434;2022-12-11T06:28:35;24.93;;;11.10;;
71790;SDS011;59638;52.126;5.434;2022-12-11T06:31:02;20.75;;;10.50;;
71790;SDS011;59638;52.126;5.434;2022-12-11T06:33:29;20.63;;;10.68;;
71790;SDS011;59638;52.126;5.434;2022-12-11T06:36:00;26.30;;;11.13;;
71790;SDS011;59638;52.126;5.434;2022-12-11T06:38:31;24.67;;;10.52;;
71790;SDS011;59638;52.126;5.434;2022-12-11T06:40:59;26.83;;;10.43;;
71790;SDS011;59638;52.126;5.434;2022-12-11T06:43:27;26.48;;;12.43;;
71790;SDS011;59638;52.126;5.434;2022-12-11T06:45:53;25.70;;;10.40;;
71790;SDS011;59638;52.126;5.434;2022-12-11T06:48:27;25.40;;;10.65;;
71790;SDS011;59638;52.126;5.434;2022-12-11T06:50:53;25.50;;;12.63;;
71790;SDS011;59638;52.126;5.434;2022-12-11T06:53:20;23.40;;;10.83;;
71790;SDS011;59638;52.126;5.434;2022-12-11T06:55:47;22.10;;;10.98;;
71790;SDS011;59638;52.126;5.434;2022-12-11T06:58:13;31.10;;;12.10;;
71790;SDS011;59638;52.126;5.434;2022-12-11T07:00:39;29.80;;;12.35;;
71790;SDS011;59638;52.126;5.434;2022-12-11T07:03:06;26.45;;;12.10;;
71790;SDS011;59638;52.126;5.434;2022-12-11T07:05:32;28.67;;;12.27;;
71790;SDS011;59638;52.126;5.434;2022-12-11T07:07:59;30.75;;;12.13;;
71790;SDS011;59638;52.126;5.434;2022-12-11T07:10:26;26.17;;;13.52;;
71790;SDS011;59638;52.126;5.434;2022-12-11T07:12:53;30.38;;;13.45;;
71790;SDS011;59638;52.126;5.434;2022-12-11T07:15:19;32.17;;;12.70;;
71790;SDS011;59638;52.126;5.434;2022-12-11T07:17:46;34.93;;;13.00;;
71790;SDS011;59638;52.126;5.434;2022-12-11T07:20:12;32.30;;;13.35;;
71790;SDS011;59638;52.126;5.434;2022-12-11T07:22:39;32.63;;;13.25;;
71790;SDS011;59638;52.126;5.434;2022-12-11T07:25:11;30.70;;;12.60;;
71790;SDS011;59638;52.126;5.434;2022-12-11T07:27:38;29.48;;;12.38;;
71790;SDS011;59638;52.126;5.434;2022-12-11T07:30:06;30.90;;;13.50;;
71790;SDS011;59638;52.126;5.434;2022-12-11T07:32:34;28.30;;;11.98;;
71790;SDS011;59638;52.126;5.434;2022-12-11T07:35:00;26.60;;;11.75;;
71790;SDS011;59638;52.126;5.434;2022-12-11T07:37:27;29.10;;;11.95;;
71790;SDS011;59638;52.126;5.434;2022-12-11T07:39:53;26.60;;;12.15;;
71790;SDS011;59638;52.126;5.434;2022-12-11T07:42:20;27.43;;;13.33;;
71790;SDS011;59638;52.126;5.434;2022-12-11T07:44:46;29.13;;;12.57;;
71790;SDS011;59638;52.126;5.434;2022-12-11T07:47:13;27.50;;;11.55;;
71790;SDS011;59638;52.126;5.434;2022-12-11T07:49:39;28.00;;;12.43;;
71790;SDS011;59638;52.126;5.434;2022-12-11T07:52:05;24.95;;;11.15;;
71790;SDS011;59638;52.126;5.434;2022-12-11T07:54:32;25.00;;;11.53;;
71790;SDS011;59638;52.126;5.434;2022-12-11T07:56:58;23.08;;;12.07;;
71790;SDS011;59638;52.126;5.434;2022-12-11T07:59:24;25.20;;;12.07;;
71790;SDS011;59638;52.126;5.434;2022-12-11T08:01:51;28.75;;;11.65;;
71790;SDS011;59638;52.126;5.434;2022-12-11T08:04:17;22.42;;;11.13;;
71790;SDS011;59638;52.126;5.434;2022-12-11T08:06:44;24.23;;;11.60;;
71790;SDS011;59638;52.126;5.434;2022-12-11T08:09:11;26.38;;;12.13;;
71790;SDS011;59638;52.126;5.434;2022-12-11T08:11:49;27.92;;;12.10;;
71790;SDS011;59638;52.126;5.434;2022-12-11T08:14:17;28.90;;;12.52;;
71790;SDS011;59638;52.126;5.434;2022-12-11T08:16:44;26.63;;;12.23;;
71790;SDS011;59638;52.126;5.434;2022-12-11T08:19:11;28.37;;;12.93;;
71790;SDS011;59638;52.126;5.434;2022-12-11T08:21:38;28.52;;;13.50;;
71790;SDS011;59638;52.126;5.434;2022-12-11T08:24:05;26.55;;;12.68;;
71790;SDS011;59638;52.126;5.434;2022-12-11T08:26:33;24.23;;;12.43;;
71790;SDS011;59638;52.126;5.434;2022-12-11T08:29:00;27.02;;;14.00;;
71790;SDS011;59638;52.126;5.434;2022-12-11T08:31:27;21.80;;;11.63;;
71790;SDS011;59638;52.126;5.434;2022-12-11T08:33:55;34.03;;;13.65;;
71790;SDS011;59638;52.126;5.434;2022-12-11T08:36:22;25.80;;;12.77;;
71790;SDS011;59638;52.126;5.434;2022-12-11T08:38:49;29.30;;;12.60;;
71790;SDS011;59638;52.126;5.434;2022-12-11T08:41:17;28.67;;;13.35;;
71790;SDS011;59638;52.126;5.434;2022-12-11T08:43:45;26.07;;;12.80;;
71790;SDS011;59638;52.126;5.434;2022-12-11T08:46:12;24.88;;;10.68;;
71790;SDS011;59638;52.126;5.434;2022-12-11T08:48:40;23.80;;;12.20;;
71790;SDS011;59638;52.126;5.434;2022-12-11T08:51:10;26.77;;;10.23;;
71790;SDS011;59638;52.126;5.434;2022-12-11T08:53:39;21.17;;;10.90;;
71790;SDS011;59638;52.126;5.434;2022-12-11T08:56:07;15.93;;;9.20;;
71790;SDS011;59638;52.126;5.434;2022-12-11T08:58:38;17.60;;;9.13;;
71790;SDS011;59638;52.126;5.434;2022-12-11T09:01:05;20.50;;;9.20;;
71790;SDS011;59638;52.126;5.434;2022-12-11T09:03:34;20.70;;;8.95;;
71790;SDS011;59638;52.126;5.434;2022-12-11T09:06:02;24.55;;;10.32;;
71790;SDS011;59638;52.126;5.434;2022-12-11T09:08:31;17.60;;;8.90;;
71790;SDS011;59638;52.126;5.434;2022-12-11T09:13:32;21.63;;;9.50;;
71790;SDS011;59638;52.126;5.434;2022-12-11T09:15:58;19.88;;;9.32;;
71790;SDS011;59638;52.126;5.434;2022-12-11T09:18:25;24.55;;;10.02;;
71790;SDS011;59638;52.126;5.434;2022-12-11T09:21:02;20.53;;;10.07;;
71790;SDS011;59638;52.126;5.434;2022-12-11T09:23:30;21.63;;;10.88;;
71790;SDS011;59638;52.126;5.434;2022-12-11T09:25:56;21.65;;;10.43;;
71790;SDS011;59638;52.126;5.434;2022-12-11T09:28:23;19.08;;;10.10;;
71790;SDS011;59638;52.126;5.434;2022-12-11T09:30:51;23.13;;;10.43;;
71790;SDS011;59638;52.126;5.434;2022-12-11T09:33:17;18.37;;;9.13;;
71790;SDS011;59638;52.126;5.434;2022-12-11T09:35:44;20.08;;;9.77;;
71790;SDS011;59638;52.126;5.434;2022-12-11T09:38:10;24.05;;;10.93;;
71790;SDS011;59638;52.126;5.434;2022-12-11T09:40:40;22.33;;;10.40;;
71790;SDS011;59638;52.126;5.434;2022-12-11T09:43:13;21.45;;;10.13;;
71790;SDS011;59638;52.126;5.434;2022-12-11T09:45:42;19.20;;;10.90;;
71790;SDS011;59638;52.126;5.434;2022-12-11T09:48:08;23.88;;;10.18;;
71790;SDS011;59638;52.126;5.434;2022-12-11T09:50:36;21.10;;;10.23;;
71790;SDS011;59638;52.126;5.434;2022-12-11T09:55:41;17.65;;;10.23;;
71790;SDS011;59638;52.126;5.434;2022-12-11T09:58:25;21.93;;;11.57;;
71790;SDS011;59638;52.126;5.434;2022-12-11T10:01:02;18.38;;;9.20;;
71790;SDS011;59638;52.126;5.434;2022-12-11T10:11:47;27.27;;;11.83;;
71790;SDS011;59638;52.126;5.434;2022-12-11T10:17:10;20.27;;;10.48;;
71790;SDS011;59638;52.126;5.434;2022-12-11T10:19:41;21.42;;;10.48;;
71790;SDS011;59638;52.126;5.434;2022-12-11T10:22:11;23.02;;;11.27;;
71790;SDS011;59638;52.126;5.434;2022-12-11T10:24:44;23.20;;;10.37;;
71790;SDS011;59638;52.126;5.434;2022-12-11T10:27:39;18.20;;;9.85;;
71790;SDS011;59638;52.126;5.434;2022-12-11T10:30:25;21.52;;;10.88;;
71790;SDS011;59638;52.126;5.434;2022-12-11T10:36:03;18.00;;;10.23;;
71790;SDS011;59638;52.126;5.434;2022-12-11T10:38:37;18.87;;;9.77;;
71790;SDS011;59638;52.126;5.434;2022-12-11T10:43:45;20.80;;;9.95;;
71790;SDS011;59638;52.126;5.434;2022-12-11T10:46:15;19.20;;;9.32;;
71790;SDS011;59638;52.126;5.434;2022-12-11T10:48:58;19.35;;;8.68;;
71790;SDS011;59638;52.126;5.434;2022-12-11T10:56:49;21.27;;;9.98;;
71790;SDS011;59638;52.126;5.434;2022-12-11T10:59:21;15.05;;;7.97;;
71790;SDS011;59638;52.126;5.434;2022-12-11T11:01:54;15.30;;;8.48;;
71790;SDS011;59638;52.126;5.434;2022-12-11T11:04:25;19.53;;;8.70;;
71790;SDS011;59638;52.126;5.434;2022-12-11T11:07:00;18.77;;;9.45;;
71790;SDS011;59638;52.126;5.434;2022-12-11T11:09:30;18.92;;;7.93;;
71790;SDS011;59638;52.126;5.434;2022-12-11T11:12:00;17.83;;;8.20;;
71790;SDS011;59638;52.126;5.434;2022-12-11T11:14:33;15.77;;;8.70;;
71790;SDS011;59638;52.126;5.434;2022-12-11T11:16:59;14.10;;;7.87;;
71790;SDS011;59638;52.126;5.434;2022-12-11T11:22:01;17.38;;;8.80;;
71790;SDS011;59638;52.126;5.434;2022-12-11T11:30:21;13.47;;;7.60;;
71790;SDS011;59638;52.126;5.434;2022-12-11T11:33:04;13.20;;;7.88;;
71790;SDS011;59638;52.126;5.434;2022-12-11T11:35:37;18.88;;;8.63;;
71790;SDS011;59638;52.126;5.434;2022-12-11T11:38:21;13.27;;;7.65;;
71790;SDS011;59638;52.126;5.434;2022-12-11T11:40:57;17.48;;;8.63;;
71790;SDS011;59638;52.126;5.434;2022-12-11T11:46:23;16.70;;;8.20;;
71790;SDS011;59638;52.126;5.434;2022-12-11T11:49:13;14.90;;;7.20;;
71790;SDS011;59638;52.126;5.434;2022-12-11T11:51:47;14.57;;;7.80;;
71790;SDS011;59638;52.126;5.434;2022-12-11T11:54:30;14.10;;;7.53;;
71790;SDS011;59638;52.126;5.434;2022-12-11T11:57:09;14.53;;;7.70;;
71790;SDS011;59638;52.126;5.434;2022-12-11T11:59:41;13.40;;;6.97;;
71790;SDS011;59638;52.126;5.434;2022-12-11T12:02:13;15.38;;;7.38;;
71790;SDS011;59638;52.126;5.434;2022-12-11T12:04:41;18.63;;;8.30;;
71790;SDS011;59638;52.126;5.434;2022-12-11T12:07:12;16.00;;;7.22;;
71790;SDS011;59638;52.126;5.434;2022-12-11T12:13:05;13.15;;;7.35;;
71790;SDS011;59638;52.126;5.434;2022-12-11T12:16:00;13.68;;;6.60;;
71790;SDS011;59638;52.126;5.434;2022-12-11T12:18:34;14.25;;;7.10;;
71790;SDS011;59638;52.126;5.434;2022-12-11T12:21:31;16.13;;;7.40;;
71790;SDS011;59638;52.126;5.434;2022-12-11T12:27:12;15.35;;;6.75;;
71790;SDS011;59638;52.126;5.434;2022-12-11T12:30:10;14.82;;;7.10;;
71790;SDS011;59638;52.126;5.434;2022-12-11T12:35:55;17.58;;;7.45;;
71790;SDS011;59638;52.126;5.434;2022-12-11T12:38:59;15.33;;;7.70;;
71790;SDS011;59638;52.126;5.434;2022-12-11T12:46:31;14.30;;;6.88;;
71790;SDS011;59638;52.126;5.434;2022-12-11T12:51:58;18.10;;;6.53;;
71790;SDS011;59638;52.126;5.434;2022-12-11T12:54:26;19.08;;;7.93;;
71790;SDS011;59638;52.126;5.434;2022-12-11T12:56:55;11.63;;;6.95;;
71790;SDS011;59638;52.126;5.434;2022-12-11T12:59:25;23.25;;;9.68;;
71790;SDS011;59638;52.126;5.434;2022-12-11T13:01:53;13.35;;;6.95;;
71790;SDS011;59638;52.126;5.434;2022-12-11T13:04:54;15.83;;;7.73;;
71790;SDS011;59638;52.126;5.434;2022-12-11T13:07:24;13.88;;;7.45;;
71790;SDS011;59638;52.126;5.434;2022-12-11T13:09:56;19.52;;;8.20;;
71790;SDS011;59638;52.126;5.434;2022-12-11T13:12:32;16.70;;;8.80;;
71790;SDS011;59638;52.126;5.434;2022-12-11T13:15:26;16.35;;;8.50;;
71790;SDS011;59638;52.126;5.434;2022-12-11T13:21:00;13.85;;;7.30;;
71790;SDS011;59638;52.126;5.434;2022-12-11T13:23:29;16.88;;;8.10;;
71790;SDS011;59638;52.126;5.434;2022-12-11T13:25:58;19.75;;;8.98;;
71790;SDS011;59638;52.126;5.434;2022-12-11T13:30:58;21.73;;;9.27;;
71790;SDS011;59638;52.126;5.434;2022-12-11T13:33:27;20.25;;;9.15;;
71790;SDS011;59638;52.126;5.434;2022-12-11T13:38:45;18.40;;;7.93;;
71790;SDS011;59638;52.126;5.434;2022-12-11T13:41:14;22.83;;;9.07;;
71790;SDS011;59638;52.126;5.434;2022-12-11T13:43:40;21.97;;;9.17;;
71790;SDS011;59638;52.126;5.434;2022-12-11T13:46:09;18.08;;;9.70;;
71790;SDS011;59638;52.126;5.434;2022-12-11T13:48:41;22.95;;;10.30;;
71790;SDS011;59638;52.126;5.434;2022-12-11T13:51:15;19.33;;;9.63;;
71790;SDS011;59638;52.126;5.434;2022-12-11T13:53:43;19.90;;;9.35;;
71790;SDS011;59638;52.126;5.434;2022-12-11T13:56:20;19.43;;;8.87;;
71790;SDS011;59638;52.126;5.434;2022-12-11T13:58:47;21.73;;;9.23;;
71790;SDS011;59638;52.126;5.434;2022-12-11T14:01:24;21.42;;;9.13;;
71790;SDS011;59638;52.126;5.434;2022-12-11T14:03:55;18.80;;;9.80;;
71790;SDS011;59638;52.126;5.434;2022-12-11T14:06:24;21.15;;;10.48;;
71790;SDS011;59638;52.126;5.434;2022-12-11T14:08:53;23.43;;;10.03;;
71790;SDS011;59638;52.126;5.434;2022-12-11T14:11:35;22.90;;;10.27;;
71790;SDS011;59638;52.126;5.434;2022-12-11T14:14:05;21.92;;;9.52;;
71790;SDS011;59638;52.126;5.434;2022-12-11T14:16:41;25.20;;;9.63;;
71790;SDS011;59638;52.126;5.434;2022-12-11T14:19:08;26.80;;;10.98;;
71790;SDS011;59638;52.126;5.434;2022-12-11T14:21:35;21.90;;;10.23;;
71790;SDS011;59638;52.126;5.434;2022-12-11T14:24:02;25.80;;;9.57;;
71790;SDS011;59638;52.126;5.434;2022-12-11T14:26:32;25.33;;;9.82;;
71790;SDS011;59638;52.126;5.434;2022-12-11T14:29:00;23.15;;;10.40;;
71790;SDS011;59638;52.126;5.434;2022-12-11T14:31:28;22.13;;;9.90;;
71790;SDS011;59638;52.126;5.434;2022-12-11T14:34:01;26.53;;;9.57;;
71790;SDS011;59638;52.126;5.434;2022-12-11T14:36:53;20.98;;;10.07;;
71790;SDS011;59638;52.126;5.434;2022-12-11T14:39:28;23.25;;;9.75;;
71790;SDS011;59638;52.126;5.434;2022-12-11T14:42:00;19.42;;;10.13;;
71790;SDS011;59638;52.126;5.434;2022-12-11T14:44:32;25.95;;;10.85;;
71790;SDS011;59638;52.126;5.434;2022-12-11T14:47:11;21.10;;;10.03;;
71790;SDS011;59638;52.126;5.434;2022-12-11T14:52:23;25.50;;;10.15;;
71790;SDS011;59638;52.126;5.434;2022-12-11T14:54:55;26.38;;;11.30;;
71790;SDS011;59638;52.126;5.434;2022-12-11T14:57:28;21.25;;;9.70;;
71790;SDS011;59638;52.126;5.434;2022-12-11T14:59:58;27.57;;;10.93;;
71790;SDS011;59638;52.126;5.434;2022-12-11T15:02:32;27.08;;;10.45;;
71790;SDS011;59638;52.126;5.434;2022-12-11T15:07:35;21.33;;;9.98;;
71790;SDS011;59638;52.126;5.434;2022-12-11T15:10:02;25.80;;;10.32;;
71790;SDS011;59638;52.126;5.434;2022-12-11T15:12:29;23.83;;;10.80;;
71790;SDS011;59638;52.126;5.434;2022-12-11T15:15:00;21.38;;;9.75;;
71790;SDS011;59638;52.126;5.434;2022-12-11T15:17:31;22.25;;;9.73;;
71790;SDS011;59638;52.126;5.434;2022-12-11T15:20:05;29.08;;;11.25;;
71790;SDS011;59638;52.126;5.434;2022-12-11T15:22:34;23.98;;;10.77;;
71790;SDS011;59638;52.126;5.434;2022-12-11T15:25:01;22.77;;;10.60;;
71790;SDS011;59638;52.126;5.434;2022-12-11T15:27:38;25.20;;;10.55;;
71790;SDS011;59638;52.126;5.434;2022-12-11T15:30:14;27.00;;;9.95;;
71790;SDS011;59638;52.126;5.434;2022-12-11T15:35:51;25.77;;;11.13;;
71790;SDS011;59638;52.126;5.434;2022-12-11T15:38:54;24.00;;;11.30;;
71790;SDS011;59638;52.126;5.434;2022-12-11T15:41:14;21.35;;;9.32;;
71790;SDS011;59638;52.126;5.434;2022-12-11T15:43:46;22.00;;;9.43;;
71790;SDS011;59638;52.126;5.434;2022-12-11T15:46:12;27.63;;;10.23;;
71790;SDS011;59638;52.126;5.434;2022-12-11T15:48:39;25.92;;;10.93;;
71790;SDS011;59638;52.126;5.434;2022-12-11T15:51:05;22.93;;;9.47;;
71790;SDS011;59638;52.126;5.434;2022-12-11T15:53:32;28.88;;;12.20;;
71790;SDS011;59638;52.126;5.434;2022-12-11T15:55:58;23.48;;;10.95;;
71790;SDS011;59638;52.126;5.434;2022-12-11T15:58:25;20.70;;;9.68;;
71790;SDS011;59638;52.126;5.434;2022-12-11T16:00:52;23.42;;;10.52;;
71790;SDS011;59638;52.126;5.434;2022-12-11T16:03:20;22.80;;;10.37;;
71790;SDS011;59638;52.126;5.434;2022-12-11T16:05:48;19.67;;;9.38;;
71790;SDS011;59638;52.126;5.434;2022-12-11T16:08:18;21.63;;;9.88;;
71790;SDS011;59638;52.126;5.434;2022-12-11T16:10:46;26.55;;;10.25;;
71790;SDS011;59638;52.126;5.434;2022-12-11T16:13:13;22.83;;;10.07;;
71790;SDS011;59638;52.126;5.434;2022-12-11T16:15:41;21.60;;;10.30;;